KRWF/RWF METAR and TAF weather

Enter ICAO airport designator
Station Type Date Time Source
KRWF METAR 2021/08/05 03:53 UTC NOAA

KRWF 050353Z AUTO 14012KT 10SM FEW095 22/15 A2996 RMK AO2 SLP140 T02170150 $


Station Type Date Time Source
KRWF Decoded METAR 2021/08/05 03:53 UTC NOAA

REDWOOD FALLS MUNICIPAL, MN, United States (KRWF) 44-33N 95-05W 311M
Aug 04, 2021 - 11:53 PM EDT / 2021.08.05 0353 UTC
Wind: from the SE (140 degrees) at 14 MPH (12 KT):0
Visibility: 10 mile(s):0
Sky conditions: mostly clear
Temperature: 71.1 F (21.7 C)
Dew Point: 59.0 F (15.0 C)
Relative Humidity: 65%
Pressure (altimeter): 29.96 in. Hg (1014 hPa)
ob: KRWF 050353Z AUTO 14012KT 10SM FEW095 22/15 A2996 RMK AO2 SLP140 T02170150
cycle: 4

Station Type Date Time Source
KRWF TAF 2021/08/04 22:46 UTC NOAA

TAF
AMD KRWF 042144Z 0422/0518 17010G16KT P6SM BKN150
FM050600 17008KT P6SM BKN090
TEMPO 0510/0514 P6SM -SHRA OVC090
FM051500 20006KT P6SM SCT130

Example: see airport list